createdAt,value
2017-10-26T00:00:07.874Z,45.5
2017-10-26T00:02:05.621Z,45.5
2017-10-26T00:04:07.871Z,45.4
2017-10-26T00:06:05.643Z,45.4
2017-10-26T00:08:07.848Z,45.5
2017-10-26T00:10:05.518Z,45.4
2017-10-26T00:12:05.305Z,45.5
2017-10-26T00:14:05.192Z,45.5
2017-10-26T00:16:05.899Z,45.4
2017-10-26T00:18:18.697Z,45.4
2017-10-26T00:20:07.972Z,45.4
2017-10-26T00:22:05.224Z,45.4
2017-10-26T00:24:05.970Z,45.4
2017-10-26T00:26:05.430Z,45.5
2017-10-26T00:28:05.177Z,45.4
2017-10-26T00:30:05.999Z,45.5
2017-10-26T00:32:05.761Z,45.5
2017-10-26T00:34:05.536Z,45.5
2017-10-26T00:36:05.265Z,45.4
2017-10-26T00:38:05.973Z,45.4
2017-10-26T00:40:05.680Z,45.5
2017-10-26T00:42:08.076Z,45.4
2017-10-26T00:44:05.860Z,45.5
2017-10-26T00:46:05.660Z,45.5
2017-10-26T00:48:05.845Z,45.5
2017-10-26T00:50:05.640Z,45.5
2017-10-26T00:52:07.929Z,45.4
2017-10-26T00:54:05.642Z,45.4
2017-10-26T00:56:05.366Z,45.4
2017-10-26T00:58:05.104Z,45.4
2017-10-26T01:00:08.502Z,45.4
2017-10-26T01:02:05.448Z,45.2
2017-10-26T01:04:05.213Z,45.2
2017-10-26T01:06:05.570Z,45.4
2017-10-26T01:08:05.852Z,45.4
2017-10-26T01:10:05.597Z,45.5
2017-10-26T01:12:05.913Z,45.4
2017-10-26T01:14:05.676Z,45.4
2017-10-26T01:16:05.878Z,45.4
2017-10-26T01:18:05.449Z,45.4
2017-10-26T01:20:05.248Z,45.4
2017-10-26T01:22:05.491Z,45.2
2017-10-26T01:24:05.296Z,45.2
2017-10-26T01:26:08.546Z,45.4
2017-10-26T01:28:05.390Z,45.2
2017-10-26T01:30:10.260Z,45.2
2017-10-26T01:32:05.969Z,45.2
2017-10-26T01:34:05.711Z,45.4
2017-10-26T01:36:08.602Z,45.3
2017-10-26T01:38:05.385Z,45.3
2017-10-26T01:40:05.145Z,45.3
2017-10-26T01:42:05.884Z,45.6
2017-10-26T01:44:05.585Z,45.3
2017-10-26T01:46:05.911Z,45.3
2017-10-26T01:48:05.672Z,45.2
2017-10-26T01:50:05.382Z,45.2
2017-10-26T01:52:10.136Z,45.3
2017-10-26T01:54:07.973Z,45.2
2017-10-26T01:56:10.756Z,45.3
2017-10-26T01:58:08.060Z,45.3
2017-10-26T02:00:05.956Z,45.3
2017-10-26T02:02:05.790Z,45.3
2017-10-26T02:04:05.067Z,45.3
2017-10-26T02:06:05.921Z,45.3
2017-10-26T02:08:05.682Z,45.3
2017-10-26T02:10:05.942Z,45.2
2017-10-26T02:12:05.729Z,45.3
2017-10-26T02:14:05.952Z,45.3
2017-10-26T02:16:05.699Z,45.3
2017-10-26T02:18:05.723Z,45.2
2017-10-26T02:20:05.965Z,45.3
2017-10-26T02:22:05.806Z,45.3
2017-10-26T02:24:05.550Z,45.3
2017-10-26T02:26:05.233Z,45.3
2017-10-26T02:28:05.960Z,45.3
2017-10-26T02:30:05.843Z,45.3
2017-10-26T02:32:05.559Z,45.3
2017-10-26T02:34:10.364Z,45.2
2017-10-26T02:36:05.060Z,45.3
2017-10-26T02:38:10.822Z,45.3
2017-10-26T02:40:05.511Z,45.3
2017-10-26T02:42:05.215Z,45.3
2017-10-26T02:44:05.470Z,45.3
2017-10-26T02:46:08.265Z,45.3
2017-10-26T02:48:08.521Z,45.2
2017-10-26T02:50:07.771Z,45.3
2017-10-26T02:52:08.024Z,45.3
2017-10-26T02:54:08.488Z,45.3
2017-10-26T02:56:05.229Z,45.3
2017-10-26T02:58:08.501Z,45.3
2017-10-26T03:00:05.279Z,45.3
2017-10-26T03:02:06.014Z,45.3
2017-10-26T03:04:08.250Z,45.3
2017-10-26T03:06:13.705Z,45.3
2017-10-26T03:08:10.492Z,45.3
2017-10-26T03:10:05.770Z,45.3
2017-10-26T03:12:08.018Z,45.3
2017-10-26T03:14:05.804Z,45.3
2017-10-26T03:16:07.626Z,45.4
2017-10-26T03:18:05.059Z,45.4
2017-10-26T03:20:05.316Z,45.4
2017-10-26T03:22:10.668Z,45.4
2017-10-26T03:24:05.410Z,45.4
2017-10-26T03:26:05.266Z,45.3
2017-10-26T03:28:05.983Z,45.3
2017-10-26T03:30:08.279Z,45.3
2017-10-26T03:32:08.532Z,45.3
2017-10-26T03:34:07.953Z,45.3
2017-10-26T03:36:05.678Z,45.3
2017-10-26T03:38:05.411Z,45.3
2017-10-26T03:40:05.137Z,45.3
2017-10-26T03:42:05.979Z,45.3
2017-10-26T03:44:05.711Z,45.3
2017-10-26T03:46:13.022Z,45.3
2017-10-26T03:48:05.785Z,45.3
2017-10-26T03:50:05.469Z,45.3
2017-10-26T03:52:05.233Z,45.3
2017-10-26T03:54:05.994Z,45.3
2017-10-26T03:56:07.828Z,45.2
2017-10-26T03:58:05.776Z,45.2
2017-10-26T04:00:08.063Z,45.2
2017-10-26T04:02:05.328Z,45.2
2017-10-26T04:04:05.073Z,45.2
2017-10-26T04:06:08.582Z,45.2
2017-10-26T04:08:05.272Z,45.2
2017-10-26T04:10:06.005Z,45.2
2017-10-26T04:12:05.845Z,45.3
2017-10-26T04:14:05.171Z,45.3
2017-10-26T04:16:05.887Z,45.3
2017-10-26T04:18:05.786Z,45.3
2017-10-26T04:20:05.009Z,45.3
2017-10-26T04:22:05.713Z,45.3
2017-10-26T04:24:05.430Z,45.3
2017-10-26T04:26:05.151Z,45.3
2017-10-26T04:28:12.956Z,45.3
2017-10-26T04:30:05.844Z,45.3
2017-10-26T04:32:05.536Z,45.3
2017-10-26T04:34:07.786Z,45.2
2017-10-26T04:36:05.046Z,45.2
2017-10-26T04:38:05.746Z,45.2
2017-10-26T04:40:05.995Z,45.3
2017-10-26T04:42:05.759Z,45.3
2017-10-26T04:44:08.016Z,45.2
2017-10-26T04:46:10.780Z,45.3
2017-10-26T04:48:08.597Z,45.2
2017-10-26T04:50:05.259Z,45.3
2017-10-26T04:52:05.553Z,45.3
2017-10-26T04:54:07.917Z,45.2
2017-10-26T04:56:05.112Z,45.2
2017-10-26T04:58:05.858Z,45.2
2017-10-26T05:00:05.719Z,45.2
2017-10-26T05:02:05.532Z,45.2
2017-10-26T05:04:07.898Z,45.2
2017-10-26T05:06:05.725Z,45.2
2017-10-26T05:08:05.439Z,45.2
2017-10-26T05:10:05.651Z,45.2
2017-10-26T05:12:05.504Z,45.2
2017-10-26T05:14:05.382Z,45.1
2017-10-26T05:16:08.344Z,45.3
2017-10-26T05:18:05.253Z,45
2017-10-26T05:20:05.950Z,45.3
2017-10-26T05:22:08.311Z,45.1
2017-10-26T05:24:07.570Z,45.1
2017-10-26T05:26:05.330Z,45.1
2017-10-26T05:28:07.628Z,45.3
2017-10-26T05:30:07.972Z,45.3
2017-10-26T05:32:08.275Z,45.3
2017-10-26T05:34:05.091Z,45
2017-10-26T05:36:05.996Z,45
2017-10-26T05:38:08.255Z,45.1
2017-10-26T05:40:05.939Z,45.1
2017-10-26T05:42:08.203Z,45.3
2017-10-26T05:44:05.911Z,45.3
2017-10-26T05:46:05.674Z,45.3
2017-10-26T05:48:13.010Z,45.5
2017-10-26T05:50:05.286Z,45.5
2017-10-26T05:52:05.498Z,45.5
2017-10-26T05:54:05.311Z,45.5
2017-10-26T05:56:07.586Z,45.3
2017-10-26T05:58:05.280Z,45.3
2017-10-26T06:00:08.544Z,45.3
2017-10-26T06:02:05.295Z,45.2
2017-10-26T06:04:05.647Z,45.3
2017-10-26T06:06:07.880Z,45.4
2017-10-26T06:08:13.211Z,45.6
2017-10-26T06:10:05.913Z,45.6
2017-10-26T06:12:08.317Z,45.3
2017-10-26T06:14:05.065Z,45.5
2017-10-26T06:16:05.416Z,45.5
2017-10-26T06:18:05.475Z,45.6
2017-10-26T06:20:05.248Z,45.8
2017-10-26T06:22:08.565Z,45.5
2017-10-26T06:24:05.323Z,45.4
2017-10-26T06:26:15.195Z,45.5
2017-10-26T06:28:10.594Z,45.5
2017-10-26T06:30:10.422Z,45.6
2017-10-26T06:32:05.202Z,45.6
2017-10-26T06:34:06.755Z,45.6
2017-10-26T06:36:05.986Z,45.5
2017-10-26T06:38:05.381Z,45.6
2017-10-26T06:40:05.121Z,45.6
2017-10-26T06:42:05.849Z,45.7
2017-10-26T06:44:05.200Z,45.8
2017-10-26T06:46:05.921Z,45.9
2017-10-26T06:48:05.896Z,45.9
2017-10-26T06:50:07.682Z,46
2017-10-26T06:52:05.926Z,46
2017-10-26T06:54:05.257Z,46
2017-10-26T06:56:07.746Z,45.9
2017-10-26T06:58:05.549Z,45.9
2017-10-26T07:00:07.977Z,45.8
2017-10-26T07:02:05.981Z,45.8
2017-10-26T07:04:05.698Z,45.9
2017-10-26T07:06:05.591Z,46
2017-10-26T07:08:05.538Z,45.9
2017-10-26T07:10:08.339Z,45.9
2017-10-26T07:12:05.056Z,45.9
2017-10-26T07:14:11.603Z,45.9
2017-10-26T07:16:05.350Z,45.9
2017-10-26T07:18:07.813Z,45.9
2017-10-26T07:20:08.049Z,45.9
2017-10-26T07:22:08.252Z,45.9
2017-10-26T07:24:05.978Z,45.9
2017-10-26T07:26:05.727Z,45.9
2017-10-26T07:28:05.439Z,45.9
2017-10-26T07:30:05.134Z,45.9
2017-10-26T07:32:05.493Z,45.9
2017-10-26T07:34:05.174Z,45.9
2017-10-26T07:36:05.862Z,46
2017-10-26T07:38:05.195Z,45.9
2017-10-26T07:40:05.963Z,46
2017-10-26T07:42:05.785Z,45.9
2017-10-26T07:44:05.494Z,45.9
2017-10-26T07:46:05.242Z,45.9
2017-10-26T07:48:06.186Z,45.9
2017-10-26T07:50:05.911Z,46.1
2017-10-26T07:52:05.823Z,46
2017-10-26T07:54:08.281Z,45.9
2017-10-26T07:56:05.978Z,45.9
2017-10-26T07:58:05.738Z,46
2017-10-26T08:00:05.754Z,46
2017-10-26T08:02:05.491Z,46
2017-10-26T08:04:05.645Z,46
2017-10-26T08:06:10.475Z,46
2017-10-26T08:08:06.243Z,45.9
2017-10-26T08:10:07.679Z,45.9
2017-10-26T08:12:05.406Z,45.9
2017-10-26T08:14:05.126Z,46
2017-10-26T08:16:05.852Z,46
2017-10-26T08:18:05.380Z,46
2017-10-26T08:20:05.109Z,46
2017-10-26T08:22:05.809Z,46
2017-10-26T08:24:08.059Z,46
2017-10-26T08:26:13.290Z,46
2017-10-26T08:28:08.524Z,46
2017-10-26T08:30:07.771Z,46
2017-10-26T08:32:05.993Z,46
2017-10-26T08:34:05.232Z,46
2017-10-26T08:36:06.000Z,46
2017-10-26T08:38:08.402Z,46
2017-10-26T08:40:05.224Z,46
2017-10-26T08:42:05.510Z,46
2017-10-26T08:44:05.234Z,46
2017-10-26T08:46:05.521Z,46
2017-10-26T08:48:05.290Z,46
2017-10-26T08:50:06.074Z,46
2017-10-26T08:52:05.831Z,46.1
2017-10-26T08:54:10.636Z,46.3
2017-10-26T08:56:05.339Z,46.3
2017-10-26T08:58:17.714Z,46.3
2017-10-26T09:00:05.410Z,46.3
2017-10-26T09:02:05.150Z,46.6
2017-10-26T09:04:10.951Z,46.6
2017-10-26T09:06:13.300Z,46.8
2017-10-26T09:08:07.523Z,46.8
2017-10-26T09:10:05.221Z,46.8
2017-10-26T09:12:05.934Z,46.9
2017-10-26T09:14:05.761Z,46.9
2017-10-26T09:16:05.469Z,46.9
2017-10-26T09:18:10.432Z,46.9
2017-10-26T09:20:05.282Z,46.9
2017-10-26T09:22:08.612Z,46.7
2017-10-26T09:24:05.385Z,46.7
2017-10-26T09:26:05.691Z,46.9
2017-10-26T09:28:08.003Z,46.8
2017-10-26T09:30:05.840Z,47
2017-10-26T09:32:10.591Z,47
2017-10-26T09:34:05.411Z,47
2017-10-26T09:36:05.113Z,47
2017-10-26T09:38:05.865Z,46.7
2017-10-26T09:40:05.326Z,46.8
2017-10-26T09:42:05.167Z,47.1
2017-10-26T09:44:08.421Z,46.8
2017-10-26T09:46:05.175Z,46.8
2017-10-26T09:48:05.932Z,47.1
2017-10-26T09:50:05.628Z,46.9
2017-10-26T09:52:05.833Z,47.1
2017-10-26T09:54:05.557Z,46.9
2017-10-26T09:56:08.385Z,47.1
2017-10-26T09:58:05.087Z,47.1
2017-10-26T10:00:10.416Z,47.1
2017-10-26T10:02:13.269Z,46.9
2017-10-26T10:04:05.488Z,46.9
2017-10-26T10:06:06.026Z,47.1
2017-10-26T10:08:05.742Z,46.9
2017-10-26T10:10:06.038Z,46.9
2017-10-26T10:12:05.320Z,47.1
2017-10-26T10:14:07.658Z,46.8
2017-10-26T10:16:05.405Z,46.8
2017-10-26T10:18:08.000Z,46.9
2017-10-26T10:20:05.723Z,46.9
2017-10-26T10:22:08.082Z,46.8
2017-10-26T10:24:08.344Z,46.9
2017-10-26T10:26:05.048Z,46.9
2017-10-26T10:28:12.869Z,46.9
2017-10-26T10:30:05.886Z,46.9
2017-10-26T10:32:05.578Z,46.8
2017-10-26T10:34:05.317Z,46.9
2017-10-26T10:36:05.061Z,46.9
2017-10-26T10:38:05.788Z,46.8
2017-10-26T10:40:08.074Z,46.9
2017-10-26T10:42:08.027Z,46.8
2017-10-26T10:44:05.769Z,46.8
2017-10-26T10:46:06.016Z,46.9
2017-10-26T10:48:05.285Z,46.8
2017-10-26T10:50:08.093Z,46.8
2017-10-26T10:52:05.800Z,46.8
2017-10-26T10:54:05.596Z,46.8
2017-10-26T10:56:05.852Z,46.9
2017-10-26T10:58:08.125Z,46.9
2017-10-26T11:00:08.372Z,46.9
2017-10-26T11:02:10.123Z,46.8
2017-10-26T11:04:05.826Z,46.9
2017-10-26T11:06:08.088Z,46.8
2017-10-26T11:08:05.789Z,46.8
2017-10-26T11:10:05.039Z,46.7
2017-10-26T11:12:08.282Z,46.7
2017-10-26T11:14:05.036Z,46.8
2017-10-26T11:16:08.339Z,47
2017-10-26T11:18:05.404Z,46.8
2017-10-26T11:20:05.657Z,46.7
2017-10-26T11:22:08.425Z,46.6
2017-10-26T11:24:05.250Z,46.6
2017-10-26T11:26:06.065Z,46.6
2017-10-26T11:28:05.839Z,46.6
2017-10-26T11:30:05.591Z,46.6
2017-10-26T11:32:05.370Z,46.6
2017-10-26T11:34:05.085Z,46.7
2017-10-26T11:36:08.317Z,47
2017-10-26T11:38:05.578Z,46.7
2017-10-26T11:40:05.523Z,46.7
2017-10-26T11:42:05.348Z,46.6
2017-10-26T11:44:10.654Z,46.7
2017-10-26T11:46:05.351Z,46.7
2017-10-26T11:48:05.133Z,46.7
2017-10-26T11:50:08.538Z,46.7
2017-10-26T11:52:10.930Z,46.8
2017-10-26T11:54:05.689Z,46.8
2017-10-26T11:56:08.550Z,46.8
2017-10-26T11:58:05.275Z,46.8
2017-10-26T12:00:05.963Z,46.8
2017-10-26T12:02:05.692Z,46.8
2017-10-26T12:04:05.400Z,46.8
2017-10-26T12:06:07.694Z,46.9
2017-10-26T12:08:05.418Z,46.9
2017-10-26T12:10:05.161Z,46.9
2017-10-26T12:12:05.978Z,46.9
2017-10-26T12:14:05.357Z,46.7
2017-10-26T12:16:07.611Z,46.7
2017-10-26T12:18:05.518Z,46.7
2017-10-26T12:20:05.220Z,46.8
2017-10-26T12:22:05.462Z,46.7
2017-10-26T12:24:07.745Z,47
2017-10-26T12:26:05.428Z,47.2
2017-10-26T12:28:05.781Z,46.8
2017-10-26T12:30:05.160Z,47.1
2017-10-26T12:32:08.556Z,46.8
2017-10-26T12:34:10.323Z,47.1
2017-10-26T12:36:05.101Z,47.1
2017-10-26T12:38:05.832Z,47.3
2017-10-26T12:40:05.577Z,47.2
2017-10-26T12:42:05.442Z,47.2
2017-10-26T12:44:05.171Z,47.3
2017-10-26T12:46:05.883Z,47.2
2017-10-26T12:48:05.681Z,47.3
2017-10-26T12:50:10.508Z,47.3
2017-10-26T12:52:05.234Z,47.3
2017-10-26T12:54:05.978Z,47.3
2017-10-26T12:56:08.392Z,47.3
2017-10-26T12:58:05.205Z,47.3
2017-10-26T13:00:08.207Z,47.2
2017-10-26T13:02:08.072Z,47.2
2017-10-26T13:04:05.493Z,47.2
2017-10-26T13:06:05.298Z,47.1
2017-10-26T13:08:05.246Z,47.2
2017-10-26T13:10:05.435Z,47.2
2017-10-26T13:12:05.270Z,47.2
2017-10-26T13:14:05.973Z,47.2
2017-10-26T13:16:05.681Z,47.2
2017-10-26T13:18:10.286Z,47
2017-10-26T13:20:08.527Z,47.1
2017-10-26T13:22:05.188Z,47.1
2017-10-26T13:24:05.912Z,47.1
2017-10-26T13:26:05.230Z,46.9
2017-10-26T13:28:13.015Z,46.9
2017-10-26T13:30:08.367Z,46.9
2017-10-26T13:32:05.082Z,46.9
2017-10-26T13:34:08.331Z,47
2017-10-26T13:36:05.127Z,47.2
2017-10-26T13:38:05.900Z,47.2
2017-10-26T13:40:05.748Z,47.2
2017-10-26T13:42:05.591Z,47
2017-10-26T13:44:05.375Z,47
2017-10-26T13:46:05.222Z,47.1
2017-10-26T13:48:05.952Z,47
2017-10-26T13:50:05.644Z,47.2
2017-10-26T13:52:05.364Z,47
2017-10-26T13:54:05.114Z,47.1
2017-10-26T13:56:05.883Z,47.1
2017-10-26T13:58:05.133Z,47
2017-10-26T14:00:05.831Z,47
2017-10-26T14:02:08.101Z,47
2017-10-26T14:04:08.369Z,47
2017-10-26T14:06:05.226Z,47
2017-10-26T14:08:05.946Z,47
2017-10-26T14:10:05.635Z,47
2017-10-26T14:12:05.361Z,47
2017-10-26T14:14:05.189Z,47.3
2017-10-26T14:16:06.002Z,47
2017-10-26T14:18:08.462Z,47.1
2017-10-26T14:20:05.247Z,47
2017-10-26T14:22:08.511Z,47
2017-10-26T14:24:10.342Z,47.3
2017-10-26T14:26:05.091Z,47.3
2017-10-26T14:28:05.857Z,47.2
2017-10-26T14:30:05.089Z,47.2
2017-10-26T14:32:08.314Z,47
2017-10-26T14:34:05.116Z,47
2017-10-26T14:36:05.958Z,47
2017-10-26T14:38:05.826Z,47.2
2017-10-26T14:40:05.526Z,47.3
2017-10-26T14:42:08.300Z,47.3
2017-10-26T14:44:06.025Z,47.1
2017-10-26T14:46:08.285Z,47.1
2017-10-26T14:48:05.984Z,47.1
2017-10-26T14:50:05.663Z,47.1
2017-10-26T14:52:07.894Z,47.1
2017-10-26T14:54:05.720Z,47.1
2017-10-26T14:56:05.491Z,47.1
2017-10-26T14:58:05.216Z,47.1
2017-10-26T15:00:06.013Z,47.1
2017-10-26T15:02:05.749Z,47.1
2017-10-26T15:04:08.000Z,47.1
2017-10-26T15:06:05.890Z,47.1
2017-10-26T15:08:05.576Z,47.1
2017-10-26T15:10:05.306Z,47
2017-10-26T15:12:06.147Z,47.1
2017-10-26T15:14:08.404Z,47
2017-10-26T15:16:07.698Z,47
2017-10-26T15:18:13.420Z,47
2017-10-26T15:20:10.281Z,47
2017-10-26T15:22:10.606Z,47
2017-10-26T15:24:08.469Z,47
2017-10-26T15:26:05.264Z,47
2017-10-26T15:28:08.508Z,46.9
2017-10-26T15:30:05.219Z,46.9
2017-10-26T15:32:08.451Z,46.9
2017-10-26T15:34:07.693Z,46.9
2017-10-26T15:36:05.443Z,46.9
2017-10-26T15:38:05.420Z,46.9
2017-10-26T15:40:05.393Z,46.9
2017-10-26T15:42:05.119Z,46.9
2017-10-26T15:44:05.897Z,47
2017-10-26T15:46:05.673Z,47
2017-10-26T15:48:05.442Z,47
2017-10-26T15:50:05.133Z,46.9
2017-10-26T15:52:05.827Z,46.7
2017-10-26T15:54:05.883Z,46.9
2017-10-26T15:56:05.642Z,46.9
2017-10-26T15:58:13.008Z,46.9
2017-10-26T16:00:05.795Z,46.9
2017-10-26T16:02:05.511Z,46.9
2017-10-26T16:04:05.714Z,46.6
2017-10-26T16:06:15.708Z,46.8
2017-10-26T16:08:08.031Z,46.6
2017-10-26T16:10:05.786Z,46.6
2017-10-26T16:12:05.126Z,46.8
2017-10-26T16:14:08.385Z,46.6
2017-10-26T16:16:05.111Z,46.6
2017-10-26T16:18:05.103Z,46.6
2017-10-26T16:20:05.941Z,46.6
2017-10-26T16:22:05.249Z,46.5
2017-10-26T16:24:05.992Z,46.6
2017-10-26T16:26:05.718Z,46.5
2017-10-26T16:28:05.425Z,46.5
2017-10-26T16:30:05.902Z,46.5
2017-10-26T16:32:05.654Z,46.6
2017-10-26T16:34:05.391Z,46.5
2017-10-26T16:36:05.081Z,46.5
2017-10-26T16:38:05.796Z,46.5
2017-10-26T16:40:08.084Z,46.4
2017-10-26T16:42:05.817Z,46.4
2017-10-26T16:44:05.515Z,46.4
2017-10-26T16:46:05.816Z,46.5
2017-10-26T16:48:05.719Z,46.4
2017-10-26T16:50:05.396Z,46.3
2017-10-26T16:52:12.118Z,46.3
2017-10-26T16:54:05.836Z,46.3
2017-10-26T16:56:05.553Z,46.3
2017-10-26T16:58:05.291Z,46.3
2017-10-26T17:00:05.116Z,46.3
2017-10-26T17:02:05.845Z,46.4
2017-10-26T17:04:05.612Z,46.4
2017-10-26T17:06:06.054Z,46.4
2017-10-26T17:08:05.809Z,46.4
2017-10-26T17:10:08.220Z,46.4
2017-10-26T17:12:18.568Z,46.4
2017-10-26T17:14:05.295Z,46.4
2017-10-26T17:16:05.120Z,46.4
2017-10-26T17:18:05.073Z,46.3
2017-10-26T17:20:05.805Z,46.4
2017-10-26T17:22:08.036Z,46.4
2017-10-26T17:24:10.855Z,46.3
2017-10-26T17:26:05.557Z,46.4
2017-10-26T17:28:05.489Z,46.4
2017-10-26T17:30:05.223Z,46.1
2017-10-26T17:32:05.478Z,46.3
2017-10-26T17:34:05.259Z,46.3
2017-10-26T17:36:05.982Z,46.1
2017-10-26T17:38:08.875Z,46.1
2017-10-26T17:40:10.642Z,46.1
2017-10-26T17:42:10.919Z,46.1
2017-10-26T17:44:08.142Z,46.4
2017-10-26T17:46:05.371Z,46.1
2017-10-26T17:48:07.680Z,46.1
2017-10-26T17:50:05.526Z,46.1
2017-10-26T17:52:07.784Z,46.1
2017-10-26T17:54:05.094Z,46.3
2017-10-26T17:56:05.870Z,46.1
2017-10-26T17:58:08.164Z,46.3
2017-10-26T18:00:05.903Z,46
2017-10-26T18:02:05.614Z,46.2
2017-10-26T18:04:05.324Z,46.3
2017-10-26T18:06:05.172Z,46.1
2017-10-26T18:08:05.937Z,46.1
2017-10-26T18:10:07.692Z,46.1
2017-10-26T18:12:05.448Z,46.3
2017-10-26T18:14:05.146Z,46.1
2017-10-26T18:16:05.865Z,46.3
2017-10-26T18:18:05.879Z,46.2
2017-10-26T18:20:05.591Z,46.1
2017-10-26T18:22:05.457Z,46.2
2017-10-26T18:24:05.307Z,46.3
2017-10-26T18:26:05.513Z,46.2
2017-10-26T18:28:05.424Z,46.3
2017-10-26T18:30:06.765Z,46.3
2017-10-26T18:32:08.483Z,46.3
2017-10-26T18:34:05.171Z,46.1
2017-10-26T18:36:05.628Z,46.3
2017-10-26T18:38:07.888Z,46.3
2017-10-26T18:40:05.562Z,46.1
2017-10-26T18:42:09.072Z,46.1
2017-10-26T18:44:08.337Z,46.1
2017-10-26T18:46:05.303Z,46.2
2017-10-26T18:48:05.611Z,46.4
2017-10-26T18:50:05.399Z,46.2
2017-10-26T18:52:05.113Z,46.4
2017-10-26T18:54:08.552Z,46.2
2017-10-26T18:56:05.340Z,46.2
2017-10-26T18:58:12.641Z,46.2
2017-10-26T19:00:05.401Z,46.2
2017-10-26T19:02:05.121Z,46.5
2017-10-26T19:04:06.039Z,46.5
2017-10-26T19:06:05.773Z,46.2
2017-10-26T19:08:05.744Z,46.3
2017-10-26T19:10:08.638Z,46.4
2017-10-26T19:12:05.410Z,46.4
2017-10-26T19:14:10.189Z,46.3
2017-10-26T19:16:08.391Z,46.3
2017-10-26T19:18:10.379Z,46.1
2017-10-26T19:20:05.740Z,46.4
2017-10-26T19:22:05.517Z,46.4
2017-10-26T19:24:05.260Z,46.3
2017-10-26T19:26:11.396Z,46
2017-10-26T19:28:05.710Z,46.1
2017-10-26T19:30:05.344Z,46.1
2017-10-26T19:32:07.676Z,46.4
2017-10-26T19:34:05.899Z,46.1
2017-10-26T19:36:08.151Z,46.3
2017-10-26T19:38:08.444Z,46.3
2017-10-26T19:40:05.676Z,46.3
2017-10-26T19:42:07.997Z,46
2017-10-26T19:44:05.870Z,46
2017-10-26T19:46:05.618Z,46
2017-10-26T19:48:05.365Z,46.2
2017-10-26T19:50:05.170Z,46
2017-10-26T19:52:05.871Z,46.3
2017-10-26T19:54:05.641Z,46
2017-10-26T19:56:05.360Z,46
2017-10-26T19:58:05.200Z,45.9
2017-10-26T20:00:05.994Z,45.9
2017-10-26T20:02:05.714Z,46.1
2017-10-26T20:04:05.457Z,46.1
2017-10-26T20:06:07.734Z,46.1
2017-10-26T20:08:10.561Z,45.9
2017-10-26T20:10:05.289Z,45.9
2017-10-26T20:12:06.113Z,45.9
2017-10-26T20:14:05.950Z,45.9
2017-10-26T20:16:05.695Z,46.1
2017-10-26T20:18:05.637Z,46.1
2017-10-26T20:20:05.366Z,46.2
2017-10-26T20:22:05.169Z,46.1
2017-10-26T20:24:05.974Z,46
2017-10-26T20:26:05.227Z,46.3
2017-10-26T20:28:05.956Z,46.1
2017-10-26T20:30:05.786Z,46
2017-10-26T20:32:10.582Z,46.1
2017-10-26T20:34:10.355Z,46.2
2017-10-26T20:36:05.201Z,46.2
2017-10-26T20:38:05.430Z,46.3
2017-10-26T20:40:05.269Z,46.2
2017-10-26T20:42:08.629Z,46.4
2017-10-26T20:44:07.877Z,46.4
2017-10-26T20:46:05.645Z,46.4
2017-10-26T20:48:05.576Z,46.5
2017-10-26T20:50:05.346Z,46.3
2017-10-26T20:52:05.136Z,46.3
2017-10-26T20:54:10.957Z,46.2
2017-10-26T20:56:05.766Z,46.2
2017-10-26T20:58:05.457Z,46.3
2017-10-26T21:00:05.215Z,46.2
2017-10-26T21:02:05.477Z,46.3
2017-10-26T21:04:05.437Z,46.3
2017-10-26T21:06:06.514Z,46.3
2017-10-26T21:08:05.214Z,46.2
2017-10-26T21:10:05.949Z,46.3
2017-10-26T21:12:05.467Z,46.3
2017-10-26T21:14:05.173Z,46.4
2017-10-26T21:16:05.856Z,46.3
2017-10-26T21:18:08.423Z,46.4
2017-10-26T21:20:05.175Z,46.4
2017-10-26T21:22:05.919Z,46.4
2017-10-26T21:24:05.607Z,46.4
2017-10-26T21:26:12.604Z,46.4
2017-10-26T21:28:05.858Z,46.4
2017-10-26T21:30:05.627Z,46.4
2017-10-26T21:32:09.137Z,46.5
2017-10-26T21:34:08.432Z,46.4
2017-10-26T21:36:05.368Z,46.4
2017-10-26T21:38:10.650Z,46.4
2017-10-26T21:40:05.335Z,46.4
2017-10-26T21:42:08.194Z,46.4
2017-10-26T21:44:05.924Z,46.4
2017-10-26T21:46:05.703Z,46.5
2017-10-26T21:48:05.426Z,46.3
2017-10-26T21:50:07.740Z,46
2017-10-26T21:52:05.994Z,46.3
2017-10-26T21:54:06.922Z,46.2
2017-10-26T21:56:05.634Z,46.2
2017-10-26T21:58:06.175Z,46
2017-10-26T22:00:06.005Z,46
2017-10-26T22:02:08.263Z,46.3
2017-10-26T22:04:11.038Z,46.4
2017-10-26T22:06:05.783Z,46.2
2017-10-26T22:08:11.071Z,46.4
2017-10-26T22:10:08.380Z,46.5
2017-10-26T22:12:08.256Z,46.1
2017-10-26T22:14:05.576Z,46.1
2017-10-26T22:16:05.318Z,46.3
2017-10-26T22:18:05.242Z,46.1
2017-10-26T22:20:05.055Z,46.2
2017-10-26T22:22:05.804Z,46.3
2017-10-26T22:24:08.071Z,46.2
2017-10-26T22:26:05.784Z,46
2017-10-26T22:28:08.062Z,46
2017-10-26T22:30:05.791Z,46
2017-10-26T22:32:10.652Z,46
2017-10-26T22:34:10.414Z,46
2017-10-26T22:36:05.179Z,46
2017-10-26T22:38:13.562Z,45.9
2017-10-26T22:40:07.913Z,45.9
2017-10-26T22:42:18.331Z,45.9
2017-10-26T22:44:04.999Z,45.9
2017-10-26T22:46:05.669Z,45.9
2017-10-26T22:48:05.417Z,46
2017-10-26T22:50:05.161Z,45.9
2017-10-26T22:52:06.101Z,46
2017-10-26T22:54:06.104Z,46
2017-10-26T22:56:05.381Z,46.1
2017-10-26T22:58:05.168Z,46.1
2017-10-26T23:00:08.397Z,46.2
2017-10-26T23:02:05.730Z,46.1
2017-10-26T23:04:05.409Z,46.2
2017-10-26T23:06:08.230Z,46.1
2017-10-26T23:08:05.994Z,46.1
2017-10-26T23:10:05.720Z,46.1
2017-10-26T23:12:05.440Z,46.1
2017-10-26T23:14:05.269Z,46.1
2017-10-26T23:16:05.988Z,46.1
2017-10-26T23:18:08.671Z,46.2
2017-10-26T23:20:05.473Z,46.2
2017-10-26T23:22:10.773Z,46.1
2017-10-26T23:24:08.009Z,46.2
2017-10-26T23:26:05.299Z,46.2
2017-10-26T23:28:07.668Z,46.2
2017-10-26T23:30:05.373Z,46.2
2017-10-26T23:32:05.115Z,46.3
2017-10-26T23:34:05.890Z,46.3
2017-10-26T23:36:05.826Z,46.3
2017-10-26T23:38:05.534Z,46.3
2017-10-26T23:40:05.235Z,46.3
2017-10-26T23:42:05.553Z,46.3
2017-10-26T23:44:05.287Z,46.3
2017-10-26T23:46:11.117Z,46.3
2017-10-26T23:48:05.732Z,46.3
2017-10-26T23:50:05.491Z,46.2
2017-10-26T23:52:07.834Z,46.2
2017-10-26T23:54:05.183Z,46.2
2017-10-26T23:56:06.033Z,46.2
2017-10-26T23:58:05.291Z,46.2
